Time;durP1;ratioP1;P1;durP2;ratioP2;P2;SDS_P1;SDS_P2;PMS_P1;PMS_P2;Temp;Humidity;BMP_temperature;BMP_pressure;BME280_temperature;BME280_humidity;BME280_pressure;Samples;Min_cycle;Max_cycle;Signal;HPM_P1;HPM_P2
2023/03/11 00:00:38;;;;;;;;;13.00;13.00;;;;;;;;5235244;28;8802;-69
2023/03/11 00:03:11;;;;;;;;;11.20;11.20;;;;;;;;5234704;28;8884;-68
2023/03/11 00:05:43;;;;;;;;;5.80;5.80;;;;;;;;5234927;28;8833;-69
2023/03/11 00:08:16;;;;;;;;;3.80;3.80;;;;;;;;5234968;28;8802;-69
2023/03/11 00:11:06;;;;;;;;;6.00;6.00;;;;;;;;5237795;28;8798;-68
2023/03/11 00:13:37;;;;;;;;;6.80;6.80;;;;;;;;5238315;28;8804;-69
2023/03/11 00:16:27;;;;;;;;;9.60;9.60;;;;;;;;5233402;28;8784;-68
2023/03/11 00:18:59;;;;;;;;;11.25;11.25;;;;;;;;5233950;28;9545;-68
2023/03/11 00:21:30;;;;;;;;;8.60;8.60;;;;;;;;5235272;28;8790;-69
2023/03/11 00:24:02;;;;;;;;;10.00;10.00;;;;;;;;5234707;28;8810;-69
2023/03/11 00:26:53;;;;;;;;;10.80;10.80;;;;;;;;5254288;28;8917;-68
2023/03/11 00:29:24;;;;;;;;;4.80;4.80;;;;;;;;5251332;28;8905;-69
2023/03/11 00:31:55;;;;;;;;;4.40;4.40;;;;;;;;5245584;28;8930;-69
2023/03/11 00:34:26;;;;;;;;;30.80;30.80;;;;;;;;5230211;28;8788;-69
2023/03/11 00:37:16;;;;;;;;;20.60;19.40;;;;;;;;5242467;28;8787;-69
2023/03/11 00:40:07;;;;;;;;;9.80;9.80;;;;;;;;5237201;28;8829;-69
2023/03/11 00:42:40;;;;;;;;;12.40;12.40;;;;;;;;5250908;28;8766;-69
2023/03/11 00:45:11;;;;;;;;;20.60;20.20;;;;;;;;5268911;28;8758;-69
2023/03/11 00:47:43;;;;;;;;;25.60;24.00;;;;;;;;5268694;28;8778;-69
2023/03/11 00:50:34;;;;;;;;;24.20;24.20;;;;;;;;5237145;28;8794;-69
2023/03/11 00:53:05;;;;;;;;;24.60;24.00;;;;;;;;5250651;28;8790;-69
2023/03/11 00:55:37;;;;;;;;;26.60;26.60;;;;;;;;5250749;28;8770;-69
2023/03/11 00:58:12;;;;;;;;;4.40;4.40;;;;;;;;5232052;28;9481;-69
2023/03/11 01:00:53;;;;;;;;;10.40;10.40;;;;;;;;5250788;28;8766;-70
2023/03/11 01:03:24;;;;;;;;;19.40;19.40;;;;;;;;5233846;28;8771;-69
2023/03/11 01:05:55;;;;;;;;;16.00;16.00;;;;;;;;5250396;28;8857;-68
2023/03/11 01:08:30;;;;;;;;;22.00;22.00;;;;;;;;5220890;28;11469;-69
2023/03/11 01:11:03;;;;;;;;;33.80;32.60;;;;;;;;5213374;28;9643;-68
2023/03/11 01:13:34;;;;;;;;;15.60;14.80;;;;;;;;5229470;28;8761;-69
2023/03/11 01:16:06;;;;;;;;;12.00;12.00;;;;;;;;5228650;28;8753;-69
2023/03/11 01:18:37;;;;;;;;;6.80;6.80;;;;;;;;5245519;28;8778;-69
2023/03/11 01:21:08;;;;;;;;;8.00;8.00;;;;;;;;5250061;28;8798;-69
2023/03/11 01:23:40;;;;;;;;;3.00;3.00;;;;;;;;5268191;28;8897;-69
2023/03/11 01:26:11;;;;;;;;;3.60;3.60;;;;;;;;5249910;28;9675;-69
2023/03/11 01:28:42;;;;;;;;;1.00;1.00;;;;;;;;5249900;28;8937;-69
2023/03/11 01:31:16;;;;;;;;;3.40;3.40;;;;;;;;5233316;28;12209;-69
2023/03/11 01:33:47;;;;;;;;;5.80;5.80;;;;;;;;5230068;28;8792;-69
2023/03/11 01:36:19;;;;;;;;;7.00;7.00;;;;;;;;5250292;28;8802;-69
2023/03/11 01:38:50;;;;;;;;;6.40;6.40;;;;;;;;5267884;28;8893;-69
2023/03/11 01:41:22;;;;;;;;;6.00;5.20;;;;;;;;5249981;28;8875;-69
2023/03/11 01:43:54;;;;;;;;;5.20;5.20;;;;;;;;5249823;28;8848;-69
2023/03/11 01:46:52;;;;;;;;;6.00;6.00;;;;;;;;5249983;28;8783;-69
2023/03/11 01:49:28;;;;;;;;;8.20;8.20;;;;;;;;5267368;28;8883;-68
2023/03/11 01:52:02;;;;;;;;;24.00;22.20;;;;;;;;5238461;28;8793;-69
2023/03/11 01:54:37;;;;;;;;;15.40;15.20;;;;;;;;5212330;28;8792;-69
2023/03/11 01:57:11;;;;;;;;;10.40;10.40;;;;;;;;5245320;28;9524;-69
2023/03/11 01:59:46;;;;;;;;;10.40;10.40;;;;;;;;5232726;28;8786;-69
2023/03/11 02:02:20;;;;;;;;;8.20;8.20;;;;;;;;5267417;28;8779;-68
2023/03/11 02:04:53;;;;;;;;;13.60;12.40;;;;;;;;5226829;28;8842;-66
2023/03/11 02:07:29;;;;;;;;;10.20;10.20;;;;;;;;5212254;28;8784;-66
2023/03/11 02:10:01;;;;;;;;;7.80;7.80;;;;;;;;5212947;28;8947;-67
2023/03/11 02:12:35;;;;;;;;;14.60;13.40;;;;;;;;5232758;28;8875;-66
2023/03/11 02:15:08;;;;;;;;;5.60;5.60;;;;;;;;5228270;28;8812;-67
2023/03/11 02:17:41;;;;;;;;;8.80;8.80;;;;;;;;5245728;28;8866;-67
2023/03/11 02:20:21;;;;;;;;;8.20;8.20;;;;;;;;5246170;28;8777;-66
2023/03/11 02:22:56;;;;;;;;;16.00;15.80;;;;;;;;5246036;28;8788;-66
2023/03/11 02:25:28;;;;;;;;;16.00;13.60;;;;;;;;5194907;28;8769;-66
2023/03/11 02:28:00;;;;;;;;;15.40;15.20;;;;;;;;5210978;28;8808;-66
2023/03/11 02:30:34;;;;;;;;;15.20;15.20;;;;;;;;5257831;28;8871;-66
2023/03/11 02:33:05;;;;;;;;;11.20;11.20;;;;;;;;5248772;28;8802;-66
2023/03/11 02:35:36;;;;;;;;;20.20;19.00;;;;;;;;5266660;28;8759;-66
2023/03/11 02:38:07;;;;;;;;;15.80;15.80;;;;;;;;5232730;28;8796;-67
2023/03/11 02:40:59;;;;;;;;;18.80;18.80;;;;;;;;5244046;28;8781;-67
2023/03/11 02:43:40;;;;;;;;;18.80;18.20;;;;;;;;5228989;28;8801;-68
2023/03/11 02:46:30;;;;;;;;;6.40;6.00;;;;;;;;5207085;28;8801;-68
2023/03/11 02:49:21;;;;;;;;;16.40;15.40;;;;;;;;5231211;28;8819;-68
2023/03/11 02:51:53;;;;;;;;;10.80;10.80;;;;;;;;5228119;28;9500;-68
2023/03/11 02:54:24;;;;;;;;;7.40;6.60;;;;;;;;5245523;28;8785;-68
2023/03/11 02:57:13;;;;;;;;;12.60;12.00;;;;;;;;5227592;28;8801;-67
2023/03/11 02:59:45;;;;;;;;;11.40;9.80;;;;;;;;5211670;28;8921;-66
2023/03/11 03:02:17;;;;;;;;;12.60;11.60;;;;;;;;5245582;28;9498;-67
2023/03/11 03:04:48;;;;;;;;;11.25;11.25;;;;;;;;5245508;28;8895;-67
2023/03/11 03:07:20;;;;;;;;;12.40;10.80;;;;;;;;5227221;28;11501;-67
2023/03/11 03:09:51;;;;;;;;;9.00;8.60;;;;;;;;5247593;28;9447;-66
2023/03/11 03:12:22;;;;;;;;;18.00;16.50;;;;;;;;5227795;28;8811;-66
2023/03/11 03:14:53;;;;;;;;;12.00;10.80;;;;;;;;5227448;28;11415;-66
2023/03/11 03:17:25;;;;;;;;;6.40;6.40;;;;;;;;5227560;28;9505;-68
2023/03/11 03:19:56;;;;;;;;;6.80;6.80;;;;;;;;5226713;28;8785;-66
2023/03/11 03:22:28;;;;;;;;;9.20;7.80;;;;;;;;5227936;28;8809;-66
2023/03/11 03:25:00;;;;;;;;;9.00;9.00;;;;;;;;5226409;28;8939;-67
2023/03/11 03:27:32;;;;;;;;;4.40;4.40;;;;;;;;5238136;28;8805;-68
2023/03/11 03:30:03;;;;;;;;;6.00;6.00;;;;;;;;5226487;28;8819;-67
2023/03/11 03:32:35;;;;;;;;;5.60;5.60;;;;;;;;5225883;28;8810;-67
2023/03/11 03:35:24;;;;;;;;;6.80;6.80;;;;;;;;5230565;28;8788;-68
2023/03/11 03:38:07;;;;;;;;;5.20;4.00;;;;;;;;5226281;28;8814;-67
2023/03/11 03:40:44;;;;;;;;;4.00;3.80;;;;;;;;5213427;28;8789;-67
2023/03/11 03:43:16;;;;;;;;;4.00;4.00;;;;;;;;5248199;28;8843;-66
2023/03/11 03:45:59;;;;;;;;;6.60;6.60;;;;;;;;5197677;28;8947;-66
2023/03/11 03:48:33;;;;;;;;;4.00;4.00;;;;;;;;5213967;28;8785;-67
2023/03/11 03:51:09;;;;;;;;;6.00;6.00;;;;;;;;5229965;28;8820;-67
2023/03/11 03:53:47;;;;;;;;;6.00;6.00;;;;;;;;5213703;28;8931;-67
2023/03/11 03:56:20;;;;;;;;;4.40;4.40;;;;;;;;5229872;28;8776;-68
2023/03/11 03:58:52;;;;;;;;;7.80;7.80;;;;;;;;5213602;28;8773;-67
2023/03/11 04:01:25;;;;;;;;;8.20;8.20;;;;;;;;5218547;28;8786;-67
2023/03/11 04:03:59;;;;;;;;;6.00;6.00;;;;;;;;5214950;28;8773;-66
2023/03/11 04:06:30;;;;;;;;;11.60;11.60;;;;;;;;5240570;28;8777;-66
2023/03/11 04:09:06;;;;;;;;;9.20;7.80;;;;;;;;5249063;28;8771;-66
2023/03/11 04:11:39;;;;;;;;;10.00;10.00;;;;;;;;5248696;28;8820;-73
2023/03/11 04:14:13;;;;;;;;;12.60;12.60;;;;;;;;5214435;28;8767;-75
2023/03/11 04:16:51;;;;;;;;;7.40;7.40;;;;;;;;5201557;28;9544;-73
2023/03/11 04:19:24;;;;;;;;;6.20;6.20;;;;;;;;5197896;28;8819;-74
2023/03/11 04:21:57;;;;;;;;;9.40;9.40;;;;;;;;5197055;28;9496;-73
2023/03/11 04:24:31;;;;;;;;;15.00;15.00;;;;;;;;5205195;28;8806;-72
2023/03/11 04:27:03;;;;;;;;;9.00;9.00;;;;;;;;5220425;28;8889;-73
2023/03/11 04:29:38;;;;;;;;;5.60;5.60;;;;;;;;5198399;28;8840;-73
2023/03/11 04:32:11;;;;;;;;;19.40;18.60;;;;;;;;5197320;28;9519;-72
2023/03/11 04:35:03;;;;;;;;;17.40;17.40;;;;;;;;5216141;28;9550;-72
2023/03/11 04:37:36;;;;;;;;;18.20;17.20;;;;;;;;5197165;28;8801;-72
2023/03/11 04:40:27;;;;;;;;;10.00;10.00;;;;;;;;5232307;28;8833;-72
2023/03/11 04:43:18;;;;;;;;;12.20;12.20;;;;;;;;5230682;28;8786;-72
2023/03/11 04:45:50;;;;;;;;;10.80;9.80;;;;;;;;5197339;28;8797;-73
2023/03/11 04:48:25;;;;;;;;;12.40;11.60;;;;;;;;5197278;28;8900;-72
2023/03/11 04:50:57;;;;;;;;;9.00;9.00;;;;;;;;5216544;28;8961;-73
2023/03/11 04:53:30;;;;;;;;;10.00;10.00;;;;;;;;5219967;28;8831;-73
2023/03/11 04:56:04;;;;;;;;;9.60;9.60;;;;;;;;5230221;28;8831;-74
2023/03/11 04:58:36;;;;;;;;;8.60;8.60;;;;;;;;5213424;28;8982;-74
2023/03/11 05:01:08;;;;;;;;;3.00;3.00;;;;;;;;5246698;28;8800;-73
2023/03/11 05:03:41;;;;;;;;;4.80;4.80;;;;;;;;5230151;28;8796;-74
2023/03/11 05:06:16;;;;;;;;;6.00;6.00;;;;;;;;5211346;28;8823;-75
2023/03/11 05:08:48;;;;;;;;;9.60;9.20;;;;;;;;5212963;28;8881;-74
2023/03/11 05:11:21;;;;;;;;;7.40;7.40;;;;;;;;5211326;28;9631;-75
2023/03/11 05:13:53;;;;;;;;;12.40;11.20;;;;;;;;5249352;28;8798;-67
2023/03/11 05:16:24;;;;;;;;;12.20;12.20;;;;;;;;5237809;28;8816;-69
2023/03/11 05:18:55;;;;;;;;;17.60;17.60;;;;;;;;5245556;28;8806;-65
2023/03/11 05:21:27;;;;;;;;;66.20;52.80;;;;;;;;5245521;28;8801;-68
2023/03/11 05:23:58;;;;;;;;;17.60;17.60;;;;;;;;5245002;28;8824;-65
2023/03/11 05:26:29;;;;;;;;;23.20;21.80;;;;;;;;5245102;28;8832;-65
2023/03/11 05:29:19;;;;;;;;;21.00;18.80;;;;;;;;5230240;28;8779;-67
2023/03/11 05:32:08;;;;;;;;;20.20;19.80;;;;;;;;5215556;28;8985;-69
2023/03/11 05:34:40;;;;;;;;;14.20;13.00;;;;;;;;5227370;28;8807;-66
2023/03/11 05:37:12;;;;;;;;;8.60;8.60;;;;;;;;5229152;28;8781;-70
2023/03/11 05:39:45;;;;;;;;;11.40;11.40;;;;;;;;5227383;28;9604;-67
2023/03/11 05:42:35;;;;;;;;;6.00;6.00;;;;;;;;5230880;28;9529;-66
2023/03/11 05:45:08;;;;;;;;;7.40;7.40;;;;;;;;5227130;28;8805;-67
2023/03/11 05:47:41;;;;;;;;;9.00;9.00;;;;;;;;5227061;28;8939;-68
2023/03/11 05:50:15;;;;;;;;;15.40;15.40;;;;;;;;5242838;28;8919;-68
2023/03/11 05:52:48;;;;;;;;;6.00;6.00;;;;;;;;5230957;28;9532;-67
2023/03/11 05:55:20;;;;;;;;;12.40;12.40;;;;;;;;5225290;28;8911;-66
2023/03/11 05:57:51;;;;;;;;;9.80;9.80;;;;;;;;5211514;28;8792;-66
2023/03/11 06:00:22;;;;;;;;;10.80;10.80;;;;;;;;5228708;28;8781;-66
2023/03/11 06:02:56;;;;;;;;;3.00;3.00;;;;;;;;5228889;28;8838;-66
2023/03/11 06:05:27;;;;;;;;;4.80;4.80;;;;;;;;5229438;28;8784;-66
2023/03/11 06:08:00;;;;;;;;;8.40;8.40;;;;;;;;5261439;28;8901;-66
2023/03/11 06:10:32;;;;;;;;;9.00;9.00;;;;;;;;5248943;28;9497;-67
2023/03/11 06:13:02;;;;;;;;;23.75;22.75;;;;;;;;5267506;28;8755;-65
2023/03/11 06:15:52;;;;;;;;;16.20;16.20;;;;;;;;5258062;28;8792;-66
2023/03/11 06:18:25;;;;;;;;;30.60;28.60;;;;;;;;5195772;28;8800;-65
2023/03/11 06:20:57;;;;;;;;;24.40;24.00;;;;;;;;5195604;28;8793;-66
2023/03/11 06:23:29;;;;;;;;;28.80;26.60;;;;;;;;5228373;28;8820;-66
2023/03/11 06:26:02;;;;;;;;;26.60;25.80;;;;;;;;5243026;28;8837;-66
2023/03/11 06:28:38;;;;;;;;;25.80;25.80;;;;;;;;5218886;28;8822;-67
2023/03/11 06:31:11;;;;;;;;;19.00;19.00;;;;;;;;5191051;28;8965;-67
2023/03/11 06:33:42;;;;;;;;;18.40;18.20;;;;;;;;5228094;28;8883;-66
2023/03/11 06:36:15;;;;;;;;;20.20;17.20;;;;;;;;5245534;28;8785;-67
2023/03/11 06:38:48;;;;;;;;;16.80;16.20;;;;;;;;5246472;28;8805;-67
2023/03/11 06:41:20;;;;;;;;;13.80;13.80;;;;;;;;5211698;28;8796;-66
2023/03/11 06:43:51;;;;;;;;;14.25;13.75;;;;;;;;5245949;28;8792;-68
2023/03/11 06:46:23;;;;;;;;;27.80;24.20;;;;;;;;5211287;28;11613;-67
2023/03/11 06:48:56;;;;;;;;;25.40;24.80;;;;;;;;5228921;28;8816;-67
2023/03/11 06:51:28;;;;;;;;;20.20;19.80;;;;;;;;5228845;28;8824;-69
2023/03/11 06:53:59;;;;;;;;;34.60;33.20;;;;;;;;5224957;28;8824;-68
2023/03/11 06:56:31;;;;;;;;;21.40;20.40;;;;;;;;5209569;28;8808;-70
2023/03/11 06:59:07;;;;;;;;;31.40;28.60;;;;;;;;5225200;28;8808;-70
2023/03/11 07:01:39;;;;;;;;;47.00;37.40;;;;;;;;5208594;28;9652;-68
2023/03/11 07:04:12;;;;;;;;;54.60;49.80;;;;;;;;5193137;28;8802;-74
2023/03/11 07:06:46;;;;;;;;;68.40;51.80;;;;;;;;5206690;28;8865;-76
2023/03/11 07:09:24;;;;;;;;;46.00;41.60;;;;;;;;5230215;28;8786;-74
2023/03/11 07:11:56;;;;;;;;;69.00;57.00;;;;;;;;5228938;28;8833;-75
2023/03/11 07:14:47;;;;;;;;;44.40;39.80;;;;;;;;5214679;28;8792;-75
2023/03/11 07:17:19;;;;;;;;;18.80;18.20;;;;;;;;5230545;28;8800;-75
2023/03/11 07:19:55;;;;;;;;;19.80;19.80;;;;;;;;5197728;28;8847;-74
2023/03/11 07:22:27;;;;;;;;;15.20;15.20;;;;;;;;5230409;28;8812;-74
2023/03/11 07:24:59;;;;;;;;;19.80;18.60;;;;;;;;5214220;28;8785;-75
2023/03/11 07:27:50;;;;;;;;;13.40;12.20;;;;;;;;5216280;28;8893;-74
2023/03/11 07:30:22;;;;;;;;;17.20;17.20;;;;;;;;5229407;28;8820;-74
2023/03/11 07:32:55;;;;;;;;;32.20;30.00;;;;;;;;5198263;28;8782;-74
2023/03/11 07:36:10;;;;;;;;;10.80;10.80;;;;;;;;5217256;28;8846;-73
2023/03/11 07:38:43;;;;;;;;;19.60;18.80;;;;;;;;5232582;28;8797;-73
2023/03/11 07:41:15;;;;;;;;;19.80;19.20;;;;;;;;5214830;28;8805;-73
2023/03/11 07:43:47;;;;;;;;;25.20;24.40;;;;;;;;5214772;28;8830;-73
2023/03/11 07:46:38;;;;;;;;;38.60;36.00;;;;;;;;5217450;28;8861;-74
2023/03/11 07:49:11;;;;;;;;;48.20;41.60;;;;;;;;5223305;28;8893;-73
2023/03/11 07:51:43;;;;;;;;;59.40;52.00;;;;;;;;5233740;28;8913;-73
2023/03/11 07:54:16;;;;;;;;;61.80;53.20;;;;;;;;5236093;28;8774;-73
2023/03/11 07:56:49;;;;;;;;;73.80;55.20;;;;;;;;5252230;28;8917;-74
2023/03/11 07:59:21;;;;;;;;;53.80;47.00;;;;;;;;5251816;28;8791;-75
2023/03/11 08:01:52;;;;;;;;;31.80;28.00;;;;;;;;5251844;28;8802;-74
2023/03/11 08:04:23;;;;;;;;;10.40;10.40;;;;;;;;5218675;28;8778;-67
2023/03/11 08:06:54;;;;;;;;;17.60;15.80;;;;;;;;5235017;28;8859;-67
2023/03/11 08:09:25;;;;;;;;;9.00;9.00;;;;;;;;5218050;28;9539;-69
2023/03/11 08:11:56;;;;;;;;;8.50;8.50;;;;;;;;5214221;28;8888;-70
2023/03/11 08:14:27;;;;;;;;;11.50;11.50;;;;;;;;5230977;28;9621;-67
2023/03/11 08:16:58;;;;;;;;;7.60;7.60;;;;;;;;5248489;28;8792;-68
2023/03/11 08:19:29;;;;;;;;;11.50;11.50;;;;;;;;5230834;28;9499;-67
2023/03/11 08:22:03;;;;;;;;;9.75;7.00;;;;;;;;5214060;28;8780;-67
2023/03/11 08:24:34;;;;;;;;;5.60;5.60;;;;;;;;5228614;28;8923;-68
2023/03/11 08:27:26;;;;;;;;;15.00;15.00;;;;;;;;5230711;28;8809;-68
2023/03/11 08:29:58;;;;;;;;;12.80;12.80;;;;;;;;5214012;28;8809;-68
2023/03/11 08:32:30;;;;;;;;;6.80;6.80;;;;;;;;5248318;28;8834;-68
2023/03/11 08:35:01;;;;;;;;;12.00;12.00;;;;;;;;5197375;28;8788;-68
2023/03/11 08:37:33;;;;;;;;;12.20;10.80;;;;;;;;5214260;28;8788;-68
2023/03/11 08:40:04;;;;;;;;;8.00;8.00;;;;;;;;5248146;28;8781;-67
2023/03/11 08:42:35;;;;;;;;;23.60;23.00;;;;;;;;5249196;28;8788;-68
2023/03/11 08:45:06;;;;;;;;;30.00;30.00;;;;;;;;5229639;28;8815;-67
2023/03/11 08:47:38;;;;;;;;;38.00;37.20;;;;;;;;5205453;28;8803;-67
2023/03/11 08:50:14;;;;;;;;;41.00;40.60;;;;;;;;5217642;28;8817;-67
2023/03/11 08:52:45;;;;;;;;;63.00;55.80;;;;;;;;5219294;28;8981;-67
2023/03/11 08:55:34;;;;;;;;;79.20;67.20;;;;;;;;5232941;28;8796;-67
2023/03/11 08:58:06;;;;;;;;;50.00;47.40;;;;;;;;5230146;28;8768;-67
2023/03/11 09:00:56;;;;;;;;;31.00;31.00;;;;;;;;5248957;28;8789;-66
2023/03/11 09:03:29;;;;;;;;;55.80;50.80;;;;;;;;5233527;28;8929;-68
2023/03/11 09:06:02;;;;;;;;;35.80;34.80;;;;;;;;5226131;28;8862;-67
2023/03/11 09:08:33;;;;;;;;;18.20;18.00;;;;;;;;5213087;28;8779;-67
2023/03/11 09:11:04;;;;;;;;;15.20;14.00;;;;;;;;5229622;28;8823;-67
2023/03/11 09:13:35;;;;;;;;;11.00;11.00;;;;;;;;5212986;28;8769;-65
2023/03/11 09:16:08;;;;;;;;;15.60;15.60;;;;;;;;5257527;28;8861;-66
2023/03/11 09:18:39;;;;;;;;;21.80;21.60;;;;;;;;5251887;28;8789;-65
2023/03/11 09:21:28;;;;;;;;;20.80;20.20;;;;;;;;5229599;28;8807;-68
2023/03/11 09:23:59;;;;;;;;;20.75;20.75;;;;;;;;5236657;28;8809;-67
2023/03/11 09:26:31;;;;;;;;;63.80;53.00;;;;;;;;5255297;28;11635;-66
2023/03/11 09:29:20;;;;;;;;;54.40;47.20;;;;;;;;5248093;28;8828;-68
2023/03/11 09:31:51;;;;;;;;;43.25;40.00;;;;;;;;5263781;28;8867;-67
2023/03/11 09:34:23;;;;;;;;;17.40;17.40;;;;;;;;5192611;28;11302;-67
2023/03/11 09:36:54;;;;;;;;;10.75;10.75;;;;;;;;5207499;28;8844;-67
2023/03/11 09:39:25;;;;;;;;;19.00;17.80;;;;;;;;5212563;28;8831;-66
2023/03/11 09:41:57;;;;;;;;;15.50;15.50;;;;;;;;5246673;28;8811;-66
2023/03/11 09:44:59;;;;;;;;;16.20;15.20;;;;;;;;5228467;28;10291;-65
2023/03/11 09:47:42;;;;;;;;;26.20;25.60;;;;;;;;5246038;28;8924;-65
2023/03/11 09:50:29;;;;;;;;;67.20;54.80;;;;;;;;5246990;28;8814;-65
2023/03/11 09:53:18;;;;;;;;;14.40;14.20;;;;;;;;5231040;28;8783;-67
2023/03/11 09:55:51;;;;;;;;;7.80;7.80;;;;;;;;5267491;28;8813;-67
2023/03/11 09:58:22;;;;;;;;;7.40;7.40;;;;;;;;5247628;28;8783;-67
2023/03/11 10:00:54;;;;;;;;;3.50;3.50;;;;;;;;5232342;28;8807;-65
2023/03/11 10:03:32;;;;;;;;;6.80;6.80;;;;;;;;5232060;28;11454;-65
2023/03/11 10:06:10;;;;;;;;;5.20;5.20;;;;;;;;5249133;28;8816;-67
2023/03/11 10:08:44;;;;;;;;;5.20;5.20;;;;;;;;5226204;28;8777;-67
2023/03/11 10:11:26;;;;;;;;;10.60;10.40;;;;;;;;5195323;28;8825;-67
2023/03/11 10:13:57;;;;;;;;;2.60;2.60;;;;;;;;5228525;28;8834;-67
2023/03/11 10:16:37;;;;;;;;;11.80;9.00;;;;;;;;5211979;28;8785;-69
2023/03/11 10:19:15;;;;;;;;;11.80;11.80;;;;;;;;5246453;28;8776;-68
2023/03/11 10:21:59;;;;;;;;;10.40;10.40;;;;;;;;5228432;28;8881;-66
2023/03/11 10:24:33;;;;;;;;;7.20;7.00;;;;;;;;5196104;28;8831;-68
2023/03/11 10:27:15;;;;;;;;;12.80;11.40;;;;;;;;5207066;28;8972;-69
2023/03/11 10:29:56;;;;;;;;;14.40;14.40;;;;;;;;5260716;28;8912;-68
2023/03/11 10:32:40;;;;;;;;;5.60;5.60;;;;;;;;5228537;28;8852;-69
2023/03/11 10:35:16;;;;;;;;;10.40;10.40;;;;;;;;5227842;28;8783;-69
2023/03/11 10:37:51;;;;;;;;;12.20;12.20;;;;;;;;5245591;28;8933;-65
2023/03/11 10:40:25;;;;;;;;;9.20;9.20;;;;;;;;5223418;28;8802;-68
2023/03/11 10:43:17;;;;;;;;;11.60;10.20;;;;;;;;5237266;28;8829;-71
2023/03/11 10:46:22;;;;;;;;;29.60;25.40;;;;;;;;5244656;28;8795;-68
2023/03/11 10:48:53;;;;;;;;;75.80;57.20;;;;;;;;5230713;28;8779;-67
2023/03/11 10:51:33;;;;;;;;;78.25;61.25;;;;;;;;5246662;28;8815;-67
2023/03/11 10:54:07;;;;;;;;;79.20;60.00;;;;;;;;5231860;28;8821;-67
2023/03/11 10:56:39;;;;;;;;;71.60;47.80;;;;;;;;5245456;28;8802;-68
2023/03/11 10:59:22;;;;;;;;;58.40;47.40;;;;;;;;5195010;28;8879;-69
2023/03/11 11:02:13;;;;;;;;;32.40;32.40;;;;;;;;5211314;28;8790;-68
2023/03/11 11:05:00;;;;;;;;;13.80;13.00;;;;;;;;5227690;28;8777;-68
2023/03/11 11:07:39;;;;;;;;;10.40;10.40;;;;;;;;5211894;28;8766;-68
2023/03/11 11:10:13;;;;;;;;;16.00;14.00;;;;;;;;5229012;28;9653;-68
2023/03/11 11:13:16;;;;;;;;;14.20;14.20;;;;;;;;5211443;28;8801;-69
2023/03/11 11:15:56;;;;;;;;;24.20;23.40;;;;;;;;5192519;28;8789;-70
2023/03/11 11:18:33;;;;;;;;;22.00;21.80;;;;;;;;5193112;28;8809;-70
2023/03/11 11:21:06;;;;;;;;;18.00;17.20;;;;;;;;5215350;28;8832;-69
2023/03/11 11:23:40;;;;;;;;;11.40;11.40;;;;;;;;5198628;28;8832;-69
2023/03/11 11:26:22;;;;;;;;;14.20;14.20;;;;;;;;5226237;28;8814;-70
2023/03/11 11:29:08;;;;;;;;;17.80;17.00;;;;;;;;5218899;28;8793;-70
2023/03/11 11:31:43;;;;;;;;;23.00;22.40;;;;;;;;5182878;28;8837;-71
2023/03/11 11:34:26;;;;;;;;;16.40;16.20;;;;;;;;5217444;28;8794;-67
2023/03/11 11:37:16;;;;;;;;;13.60;13.00;;;;;;;;5220923;28;8935;-65
2023/03/11 11:39:52;;;;;;;;;11.00;11.00;;;;;;;;5224783;28;8944;-67
2023/03/11 11:42:25;;;;;;;;;12.60;12.60;;;;;;;;5186191;28;10967;-68
2023/03/11 11:44:59;;;;;;;;;24.20;22.60;;;;;;;;5225207;28;8939;-67
2023/03/11 11:47:34;;;;;;;;;15.60;15.60;;;;;;;;5215539;28;8790;-67
2023/03/11 11:50:12;;;;;;;;;16.00;15.80;;;;;;;;5198852;28;8899;-69
2023/03/11 11:53:21;;;;;;;;;74.20;57.80;;;;;;;;5222530;28;9528;-67
2023/03/11 11:55:53;;;;;;;;;72.20;58.40;;;;;;;;5243263;28;8891;-66
2023/03/11 11:58:23;;;;;;;;;36.00;33.50;;;;;;;;5247534;28;8795;-66
2023/03/11 12:01:02;;;;;;;;;71.00;56.75;;;;;;;;5233963;28;11615;-66
2023/03/11 12:03:36;;;;;;;;;100.80;74.60;;;;;;;;5226829;28;8777;-66
2023/03/11 12:06:17;;;;;;;;;44.60;41.80;;;;;;;;5210220;28;8804;-66
2023/03/11 12:09:04;;;;;;;;;18.40;17.00;;;;;;;;5226657;28;8773;-66
2023/03/11 12:11:36;;;;;;;;;15.60;14.80;;;;;;;;5228073;28;8805;-65
2023/03/11 12:14:27;;;;;;;;;17.20;17.20;;;;;;;;5227043;28;8762;-66
2023/03/11 12:17:00;;;;;;;;;17.20;17.20;;;;;;;;5221433;28;8802;-66
2023/03/11 12:19:43;;;;;;;;;24.40;22.60;;;;;;;;5232612;28;9926;-66
2023/03/11 12:22:14;;;;;;;;;46.00;43.20;;;;;;;;5212975;28;8798;-66
2023/03/11 12:24:48;;;;;;;;;23.25;23.25;;;;;;;;5248341;28;9459;-66
2023/03/11 12:27:25;;;;;;;;;19.20;19.20;;;;;;;;5263716;28;8798;-66
2023/03/11 12:30:04;;;;;;;;;19.80;19.80;;;;;;;;5234172;28;8783;-66
2023/03/11 12:32:54;;;;;;;;;22.40;19.80;;;;;;;;5251486;28;8839;-66
2023/03/11 12:35:48;;;;;;;;;21.80;20.80;;;;;;;;5267475;28;8774;-66
2023/03/11 12:38:23;;;;;;;;;29.80;27.60;;;;;;;;5230217;28;8808;-66
2023/03/11 12:40:59;;;;;;;;;16.20;16.00;;;;;;;;5213666;28;8773;-66
2023/03/11 12:43:32;;;;;;;;;24.80;21.40;;;;;;;;5248315;28;8772;-66
2023/03/11 12:46:41;;;;;;;;;35.40;34.40;;;;;;;;5233242;28;8805;-67
2023/03/11 12:49:13;;;;;;;;;29.80;29.80;;;;;;;;5248085;28;8799;-68
2023/03/11 12:52:17;;;;;;;;;22.60;22.00;;;;;;;;5218680;28;8798;-68
2023/03/11 12:55:09;;;;;;;;;35.40;35.40;;;;;;;;5207011;28;8807;-68
2023/03/11 12:57:47;;;;;;;;;30.00;27.60;;;;;;;;5264140;28;8792;-66
2023/03/11 13:00:41;;;;;;;;;10.00;10.00;;;;;;;;5213347;28;8814;-68
2023/03/11 13:03:14;;;;;;;;;18.40;18.40;;;;;;;;5229520;28;9522;-66
2023/03/11 13:05:53;;;;;;;;;24.60;24.60;;;;;;;;5213420;28;8800;-66
2023/03/11 13:08:26;;;;;;;;;23.00;20.40;;;;;;;;5212755;28;8935;-66
2023/03/11 13:11:27;;;;;;;;;29.00;28.60;;;;;;;;5215457;28;8808;-65
2023/03/11 13:14:28;;;;;;;;;22.20;22.00;;;;;;;;5192167;28;8811;-66
2023/03/11 13:17:18;;;;;;;;;16.40;16.20;;;;;;;;5189846;28;8794;-66
2023/03/11 13:20:27;;;;;;;;;22.00;22.00;;;;;;;;5246926;28;8924;-67
2023/03/11 13:23:01;;;;;;;;;16.40;14.80;;;;;;;;5210238;28;8893;-66
2023/03/11 13:25:50;;;;;;;;;24.80;24.80;;;;;;;;5226286;28;8889;-66
2023/03/11 13:28:39;;;;;;;;;33.20;33.20;;;;;;;;5215279;28;8876;-66
2023/03/11 13:31:20;;;;;;;;;23.75;23.00;;;;;;;;5216223;28;8818;-66
2023/03/11 13:33:52;;;;;;;;;38.40;37.80;;;;;;;;5249975;28;8801;-68
2023/03/11 13:36:38;;;;;;;;;35.80;34.80;;;;;;;;5257491;28;8815;-66
2023/03/11 13:39:27;;;;;;;;;27.40;26.80;;;;;;;;5192889;28;8793;-67
2023/03/11 13:42:37;;;;;;;;;22.20;22.20;;;;;;;;5230287;28;8815;-67
2023/03/11 13:45:15;;;;;;;;;26.00;25.80;;;;;;;;5214749;28;8800;-67
2023/03/11 13:47:48;;;;;;;;;19.40;19.40;;;;;;;;5195883;28;8808;-68
2023/03/11 13:50:39;;;;;;;;;22.20;20.20;;;;;;;;5196679;28;8931;-67
2023/03/11 13:53:16;;;;;;;;;17.80;16.80;;;;;;;;5265100;28;8813;-68
2023/03/11 13:55:48;;;;;;;;;20.60;19.20;;;;;;;;5232236;28;8892;-68
2023/03/11 13:58:21;;;;;;;;;22.80;21.00;;;;;;;;5249715;28;8774;-67
2023/03/11 14:00:53;;;;;;;;;16.00;16.00;;;;;;;;5249800;28;8775;-68
2023/03/11 14:03:25;;;;;;;;;19.00;18.20;;;;;;;;5249218;28;8770;-69
2023/03/11 14:06:05;;;;;;;;;9.00;9.00;;;;;;;;5232653;28;9535;-68
2023/03/11 14:08:37;;;;;;;;;9.80;9.80;;;;;;;;5248647;28;8802;-68
2023/03/11 14:11:11;;;;;;;;;4.60;3.80;;;;;;;;5242888;28;8842;-69
2023/03/11 14:13:43;;;;;;;;;14.40;14.40;;;;;;;;5189951;28;8799;-67
2023/03/11 14:16:17;;;;;;;;;13.00;11.80;;;;;;;;5207701;28;8919;-67
2023/03/11 14:19:11;;;;;;;;;6.80;6.80;;;;;;;;5239394;28;8877;-68
2023/03/11 14:21:42;;;;;;;;;9.00;9.00;;;;;;;;5211407;28;8802;-67
2023/03/11 14:24:18;;;;;;;;;12.80;12.80;;;;;;;;5188800;28;8790;-68
2023/03/11 14:26:50;;;;;;;;;9.60;9.60;;;;;;;;5189621;28;8868;-69
2023/03/11 14:29:28;;;;;;;;;7.40;7.40;;;;;;;;5194765;28;8824;-68
2023/03/11 14:31:59;;;;;;;;;10.20;9.80;;;;;;;;5226498;28;8784;-68
2023/03/11 14:34:30;;;;;;;;;7.00;7.00;;;;;;;;5244345;28;8827;-67
2023/03/11 14:37:02;;;;;;;;;11.80;10.00;;;;;;;;5244314;28;8930;-67
2023/03/11 14:39:35;;;;;;;;;10.00;10.00;;;;;;;;5193804;28;8781;-69
2023/03/11 14:42:18;;;;;;;;;12.00;12.00;;;;;;;;5209545;28;8806;-65
2023/03/11 14:45:00;;;;;;;;;12.00;9.80;;;;;;;;5226669;28;8816;-67
2023/03/11 14:47:34;;;;;;;;;30.40;28.60;;;;;;;;5227076;28;8808;-67
2023/03/11 14:50:08;;;;;;;;;16.00;15.20;;;;;;;;5226335;28;8881;-67
2023/03/11 14:52:51;;;;;;;;;12.80;12.80;;;;;;;;5211036;28;8804;-64
2023/03/11 14:55:25;;;;;;;;;9.80;9.80;;;;;;;;5209495;28;9569;-66
2023/03/11 14:57:56;;;;;;;;;10.40;9.80;;;;;;;;5192785;28;8813;-68
2023/03/11 15:00:29;;;;;;;;;11.50;10.00;;;;;;;;5209628;28;8818;-68
2023/03/11 15:03:11;;;;;;;;;18.80;18.80;;;;;;;;5209683;28;8816;-66
2023/03/11 15:05:48;;;;;;;;;19.40;19.40;;;;;;;;5228776;28;8804;-66
2023/03/11 15:08:21;;;;;;;;;17.60;17.60;;;;;;;;5229994;28;8871;-66
2023/03/11 15:11:10;;;;;;;;;14.60;14.60;;;;;;;;5229906;28;8810;-68
2023/03/11 15:14:15;;;;;;;;;15.00;14.20;;;;;;;;5243686;28;8798;-66
2023/03/11 15:16:47;;;;;;;;;7.00;7.00;;;;;;;;5192936;28;8824;-66
2023/03/11 15:19:30;;;;;;;;;19.60;18.20;;;;;;;;5225931;28;8835;-66
2023/03/11 15:22:05;;;;;;;;;14.20;13.40;;;;;;;;5219086;28;8833;-67
2023/03/11 15:24:37;;;;;;;;;15.40;14.60;;;;;;;;5194334;28;9549;-65
2023/03/11 15:27:20;;;;;;;;;10.40;10.00;;;;;;;;5173453;28;8869;-65
2023/03/11 15:29:54;;;;;;;;;14.60;14.60;;;;;;;;5244008;28;8820;-67
2023/03/11 15:32:43;;;;;;;;;15.00;15.00;;;;;;;;5211670;28;8952;-70
2023/03/11 15:35:16;;;;;;;;;10.40;8.00;;;;;;;;5232497;28;9644;-69